sensor_id;sensor_type;location;lat;lon;timestamp;pressure;altitude;pressure_sealevel;temperature;humidity
81608;BME280;71022;48.122;11.576;2024-03-02T00:00:40;94577.59;;;7.52;80.91
81608;BME280;71022;48.122;11.576;2024-03-02T00:03:08;94580.81;;;7.57;80.26
81608;BME280;71022;48.122;11.576;2024-03-02T00:05:36;94580.47;;;7.78;79.38
81608;BME280;71022;48.122;11.576;2024-03-02T00:08:04;94581.75;;;7.65;79.53
81608;BME280;71022;48.122;11.576;2024-03-02T00:10:38;94582.31;;;7.74;79.30
81608;BME280;71022;48.122;11.576;2024-03-02T00:13:09;94576.13;;;7.77;79.33
81608;BME280;71022;48.122;11.576;2024-03-02T00:15:46;94576.44;;;7.72;79.16
81608;BME280;71022;48.122;11.576;2024-03-02T00:18:19;94570.81;;;7.65;79.73
81608;BME280;71022;48.122;11.576;2024-03-02T00:20:46;94574.00;;;7.67;79.66
81608;BME280;71022;48.122;11.576;2024-03-02T00:23:15;94569.25;;;7.45;80.55
81608;BME280;71022;48.122;11.576;2024-03-02T00:25:44;94563.06;;;7.29;81.17
81608;BME280;71022;48.122;11.576;2024-03-02T00:28:16;94562.13;;;7.40;80.50
81608;BME280;71022;48.122;11.576;2024-03-02T00:33:28;94556.09;;;7.69;79.25
81608;BME280;71022;48.122;11.576;2024-03-02T00:35:57;94556.47;;;7.49;80.09
81608;BME280;71022;48.122;11.576;2024-03-02T00:38:24;94558.53;;;7.36;80.76
81608;BME280;71022;48.122;11.576;2024-03-02T00:40:52;94553.50;;;7.57;79.44
81608;BME280;71022;48.122;11.576;2024-03-02T00:46:02;94552.84;;;7.26;81.19
81608;BME280;71022;48.122;11.576;2024-03-02T00:48:30;94548.09;;;7.22;81.07
81608;BME280;71022;48.122;11.576;2024-03-02T00:50:58;94546.09;;;7.39;80.70
81608;BME280;71022;48.122;11.576;2024-03-02T00:53:26;94554.31;;;7.58;79.77
81608;BME280;71022;48.122;11.576;2024-03-02T00:55:53;94550.84;;;7.42;80.49
81608;BME280;71022;48.122;11.576;2024-03-02T00:58:20;94542.31;;;7.43;80.49
81608;BME280;71022;48.122;11.576;2024-03-02T01:00:48;94537.91;;;7.19;81.27
81608;BME280;71022;48.122;11.576;2024-03-02T01:03:15;94543.38;;;7.19;81.11
81608;BME280;71022;48.122;11.576;2024-03-02T01:05:43;94542.94;;;7.37;79.83
81608;BME280;71022;48.122;11.576;2024-03-02T01:08:10;94555.88;;;7.59;79.67
81608;BME280;71022;48.122;11.576;2024-03-02T01:10:38;94556.72;;;7.44;80.02
81608;BME280;71022;48.122;11.576;2024-03-02T01:13:05;94550.53;;;7.28;80.76
81608;BME280;71022;48.122;11.576;2024-03-02T01:15:33;94548.41;;;7.37;80.24
81608;BME280;71022;48.122;11.576;2024-03-02T01:18:00;94548.09;;;7.22;80.85
81608;BME280;71022;48.122;11.576;2024-03-02T01:20:28;94550.31;;;7.17;80.62
81608;BME280;71022;48.122;11.576;2024-03-02T01:22:55;94547.97;;;7.00;81.82
81608;BME280;71022;48.122;11.576;2024-03-02T01:25:22;94553.88;;;7.37;79.66
81608;BME280;71022;48.122;11.576;2024-03-02T01:27:49;94552.19;;;7.32;80.20
81608;BME280;71022;48.122;11.576;2024-03-02T01:30:17;94557.00;;;7.39;79.79
81608;BME280;71022;48.122;11.576;2024-03-02T01:32:44;94556.38;;;7.45;79.31
81608;BME280;71022;48.122;11.576;2024-03-02T01:35:11;94556.94;;;7.35;79.69
81608;BME280;71022;48.122;11.576;2024-03-02T01:37:38;94549.59;;;7.20;80.13
81608;BME280;71022;48.122;11.576;2024-03-02T01:40:06;94543.91;;;7.09;80.73
81608;BME280;71022;48.122;11.576;2024-03-02T01:42:36;94547.94;;;7.15;80.74
81608;BME280;71022;48.122;11.576;2024-03-02T01:45:05;94551.97;;;7.21;79.92
81608;BME280;71022;48.122;11.576;2024-03-02T01:47:33;94554.28;;;7.19;79.97
81608;BME280;71022;48.122;11.576;2024-03-02T01:50:00;94545.34;;;7.03;80.77
81608;BME280;71022;48.122;11.576;2024-03-02T01:52:28;94542.25;;;7.05;81.18
81608;BME280;71022;48.122;11.576;2024-03-02T01:54:55;94542.41;;;7.12;80.45
81608;BME280;71022;48.122;11.576;2024-03-02T01:57:23;94544.41;;;7.15;79.93
81608;BME280;71022;48.122;11.576;2024-03-02T01:59:50;94538.63;;;7.16;80.22
81608;BME280;71022;48.122;11.576;2024-03-02T02:02:18;94538.03;;;7.07;80.58
81608;BME280;71022;48.122;11.576;2024-03-02T02:04:45;94527.81;;;7.23;79.77
81608;BME280;71022;48.122;11.576;2024-03-02T02:07:13;94535.69;;;7.25;79.88
81608;BME280;71022;48.122;11.576;2024-03-02T02:09:41;94528.91;;;7.38;79.04
81608;BME280;71022;48.122;11.576;2024-03-02T02:12:09;94522.22;;;7.36;79.15
81608;BME280;71022;48.122;11.576;2024-03-02T02:14:37;94523.66;;;7.10;79.48
81608;BME280;71022;48.122;11.576;2024-03-02T02:17:04;94517.75;;;7.08;79.75
81608;BME280;71022;48.122;11.576;2024-03-02T02:19:31;94510.28;;;7.05;79.68
81608;BME280;71022;48.122;11.576;2024-03-02T02:21:58;94511.88;;;7.06;79.51
81608;BME280;71022;48.122;11.576;2024-03-02T02:24:25;94507.00;;;7.35;78.96
81608;BME280;71022;48.122;11.576;2024-03-02T02:26:53;94507.72;;;7.32;78.97
81608;BME280;71022;48.122;11.576;2024-03-02T02:29:20;94503.75;;;7.10;79.93
81608;BME280;71022;48.122;11.576;2024-03-02T02:31:47;94508.38;;;6.90;80.72
81608;BME280;71022;48.122;11.576;2024-03-02T02:34:14;94505.75;;;6.94;80.47
81608;BME280;71022;48.122;11.576;2024-03-02T02:36:42;94512.03;;;7.13;79.85
81608;BME280;71022;48.122;11.576;2024-03-02T02:39:13;94506.56;;;6.79;81.47
81608;BME280;71022;48.122;11.576;2024-03-02T02:41:40;94506.34;;;6.68;82.08
81608;BME280;71022;48.122;11.576;2024-03-02T02:44:08;94504.22;;;6.77;82.08
81608;BME280;71022;48.122;11.576;2024-03-02T02:46:35;94513.13;;;6.58;82.70
81608;BME280;71022;48.122;11.576;2024-03-02T02:49:02;94511.88;;;6.72;82.42
81608;BME280;71022;48.122;11.576;2024-03-02T02:51:29;94503.00;;;6.94;81.38
81608;BME280;71022;48.122;11.576;2024-03-02T02:53:57;94506.25;;;6.64;82.79
81608;BME280;71022;48.122;11.576;2024-03-02T02:56:24;94503.75;;;6.75;82.29
81608;BME280;71022;48.122;11.576;2024-03-02T02:58:51;94503.81;;;6.94;81.65
81608;BME280;71022;48.122;11.576;2024-03-02T03:01:18;94510.16;;;6.98;80.85
81608;BME280;71022;48.122;11.576;2024-03-02T03:03:46;94505.63;;;6.71;82.73
81608;BME280;71022;48.122;11.576;2024-03-02T03:06:13;94514.09;;;7.01;81.33
81608;BME280;71022;48.122;11.576;2024-03-02T03:08:40;94520.38;;;6.86;82.07
81608;BME280;71022;48.122;11.576;2024-03-02T03:11:07;94528.16;;;6.68;82.58
81608;BME280;71022;48.122;11.576;2024-03-02T03:13:35;94529.25;;;6.98;81.22
81608;BME280;71022;48.122;11.576;2024-03-02T03:16:03;94521.13;;;6.67;83.05
81608;BME280;71022;48.122;11.576;2024-03-02T03:18:30;94519.66;;;6.54;83.76
81608;BME280;71022;48.122;11.576;2024-03-02T03:20:57;94515.53;;;6.60;83.53
81608;BME280;71022;48.122;11.576;2024-03-02T03:23:25;94522.16;;;6.78;82.69
81608;BME280;71022;48.122;11.576;2024-03-02T03:25:52;94517.97;;;6.65;83.16
81608;BME280;71022;48.122;11.576;2024-03-02T03:28:20;94523.66;;;6.76;82.55
81608;BME280;71022;48.122;11.576;2024-03-02T03:30:47;94530.47;;;7.01;81.56
81608;BME280;71022;48.122;11.576;2024-03-02T03:33:14;94527.38;;;7.02;81.71
81608;BME280;71022;48.122;11.576;2024-03-02T03:35:42;94530.56;;;7.43;79.52
81608;BME280;71022;48.122;11.576;2024-03-02T03:38:09;94524.41;;;7.46;79.18
81608;BME280;71022;48.122;11.576;2024-03-02T03:40:36;94522.25;;;7.16;81.06
81608;BME280;71022;48.122;11.576;2024-03-02T03:43:04;94528.06;;;7.34;80.58
81608;BME280;71022;48.122;11.576;2024-03-02T03:45:31;94528.28;;;7.45;80.13
81608;BME280;71022;48.122;11.576;2024-03-02T03:47:58;94523.53;;;7.42;80.13
81608;BME280;71022;48.122;11.576;2024-03-02T03:50:26;94524.13;;;7.32;80.38
81608;BME280;71022;48.122;11.576;2024-03-02T03:52:53;94532.72;;;7.34;80.24
81608;BME280;71022;48.122;11.576;2024-03-02T03:55:20;94527.13;;;7.27;80.98
81608;BME280;71022;48.122;11.576;2024-03-02T03:57:47;94534.31;;;7.35;80.58
81608;BME280;71022;48.122;11.576;2024-03-02T04:00:15;94530.72;;;7.31;79.94
81608;BME280;71022;48.122;11.576;2024-03-02T04:02:42;94532.94;;;7.44;79.70
81608;BME280;71022;48.122;11.576;2024-03-02T04:05:10;94531.00;;;7.26;81.15
81608;BME280;71022;48.122;11.576;2024-03-02T04:07:39;94533.63;;;7.03;82.00
81608;BME280;71022;48.122;11.576;2024-03-02T04:10:11;94536.59;;;7.33;80.51
81608;BME280;71022;48.122;11.576;2024-03-02T04:12:39;94528.78;;;7.31;80.58
81608;BME280;71022;48.122;11.576;2024-03-02T04:15:07;94533.16;;;7.16;81.00
81608;BME280;71022;48.122;11.576;2024-03-02T04:17:35;94533.75;;;7.26;80.81
81608;BME280;71022;48.122;11.576;2024-03-02T04:20:03;94543.22;;;7.32;80.58
81608;BME280;71022;48.122;11.576;2024-03-02T04:22:34;94535.56;;;7.02;82.12
81608;BME280;71022;48.122;11.576;2024-03-02T04:25:03;94536.00;;;7.04;82.50
81608;BME280;71022;48.122;11.576;2024-03-02T04:27:31;94540.41;;;7.28;81.61
81608;BME280;71022;48.122;11.576;2024-03-02T04:30:00;94540.34;;;7.24;81.82
81608;BME280;71022;48.122;11.576;2024-03-02T04:32:27;94547.09;;;7.31;81.48
81608;BME280;71022;48.122;11.576;2024-03-02T04:34:54;94541.13;;;7.25;81.27
81608;BME280;71022;48.122;11.576;2024-03-02T04:37:22;94538.53;;;7.13;82.13
81608;BME280;71022;48.122;11.576;2024-03-02T04:39:49;94546.56;;;7.06;82.23
81608;BME280;71022;48.122;11.576;2024-03-02T04:42:16;94546.72;;;7.13;82.15
81608;BME280;71022;48.122;11.576;2024-03-02T04:44:43;94555.31;;;6.96;82.99
81608;BME280;71022;48.122;11.576;2024-03-02T04:47:11;94556.44;;;7.10;82.52
81608;BME280;71022;48.122;11.576;2024-03-02T04:49:38;94556.44;;;7.10;82.07
81608;BME280;71022;48.122;11.576;2024-03-02T04:52:05;94551.19;;;6.86;83.65
81608;BME280;71022;48.122;11.576;2024-03-02T04:54:32;94553.06;;;6.66;85.73
81608;BME280;71022;48.122;11.576;2024-03-02T04:57:02;94560.41;;;6.47;86.46
81608;BME280;71022;48.122;11.576;2024-03-02T04:59:29;94567.72;;;6.27;87.77
81608;BME280;71022;48.122;11.576;2024-03-02T05:01:57;94581.66;;;6.26;88.11
81608;BME280;71022;48.122;11.576;2024-03-02T05:04:25;94581.88;;;6.33;88.34
81608;BME280;71022;48.122;11.576;2024-03-02T05:06:52;94584.47;;;6.60;86.88
81608;BME280;71022;48.122;11.576;2024-03-02T05:09:22;94570.91;;;6.95;84.74
81608;BME280;71022;48.122;11.576;2024-03-02T05:11:49;94576.34;;;6.95;84.74
81608;BME280;71022;48.122;11.576;2024-03-02T05:14:31;94579.72;;;6.89;84.23
81608;BME280;71022;48.122;11.576;2024-03-02T05:16:59;94585.84;;;7.01;84.27
81608;BME280;71022;48.122;11.576;2024-03-02T05:19:26;94573.66;;;7.14;83.47
81608;BME280;71022;48.122;11.576;2024-03-02T05:21:53;94585.28;;;7.11;83.07
81608;BME280;71022;48.122;11.576;2024-03-02T05:24:20;94578.31;;;7.14;82.93
81608;BME280;71022;48.122;11.576;2024-03-02T05:26:48;94581.94;;;7.18;82.27
81608;BME280;71022;48.122;11.576;2024-03-02T05:29:16;94574.06;;;6.97;83.62
81608;BME280;71022;48.122;11.576;2024-03-02T05:31:43;94574.13;;;7.01;83.31
81608;BME280;71022;48.122;11.576;2024-03-02T05:34:10;94580.53;;;7.08;82.75
81608;BME280;71022;48.122;11.576;2024-03-02T05:36:38;94575.34;;;7.19;82.29
81608;BME280;71022;48.122;11.576;2024-03-02T05:39:06;94576.56;;;7.21;81.92
81608;BME280;71022;48.122;11.576;2024-03-02T05:41:36;94576.97;;;7.23;82.35
81608;BME280;71022;48.122;11.576;2024-03-02T05:44:03;94584.81;;;7.25;81.88
81608;BME280;71022;48.122;11.576;2024-03-02T05:46:31;94581.50;;;7.16;82.25
81608;BME280;71022;48.122;11.576;2024-03-02T05:48:59;94584.25;;;7.00;83.13
81608;BME280;71022;48.122;11.576;2024-03-02T05:51:27;94585.34;;;6.80;83.41
81608;BME280;71022;48.122;11.576;2024-03-02T05:53:54;94579.81;;;6.77;84.61
81608;BME280;71022;48.122;11.576;2024-03-02T05:56:22;94588.25;;;6.87;84.13
81608;BME280;71022;48.122;11.576;2024-03-02T05:58:49;94582.88;;;6.75;84.25
81608;BME280;71022;48.122;11.576;2024-03-02T06:01:35;94588.47;;;6.63;85.42
81608;BME280;71022;48.122;11.576;2024-03-02T06:04:02;94586.88;;;6.46;87.00
81608;BME280;71022;48.122;11.576;2024-03-02T06:06:30;94591.09;;;6.44;86.57
81608;BME280;71022;48.122;11.576;2024-03-02T06:09:00;94589.50;;;6.43;86.89
81608;BME280;71022;48.122;11.576;2024-03-02T06:11:27;94590.28;;;6.28;87.81
81608;BME280;71022;48.122;11.576;2024-03-02T06:13:55;94587.31;;;6.33;87.42
81608;BME280;71022;48.122;11.576;2024-03-02T06:16:22;94591.38;;;6.39;87.13
81608;BME280;71022;48.122;11.576;2024-03-02T06:18:49;94596.13;;;6.42;87.41
81608;BME280;71022;48.122;11.576;2024-03-02T06:21:17;94592.06;;;6.36;87.15
81608;BME280;71022;48.122;11.576;2024-03-02T06:23:45;94587.47;;;6.40;87.38
81608;BME280;71022;48.122;11.576;2024-03-02T06:26:13;94596.72;;;6.35;88.12
81608;BME280;71022;48.122;11.576;2024-03-02T06:28:40;94594.53;;;6.41;87.01
81608;BME280;71022;48.122;11.576;2024-03-02T06:31:07;94590.81;;;6.49;87.05
81608;BME280;71022;48.122;11.576;2024-03-02T06:33:34;94586.22;;;6.84;85.35
81608;BME280;71022;48.122;11.576;2024-03-02T06:36:02;94588.84;;;6.96;84.45
81608;BME280;71022;48.122;11.576;2024-03-02T06:38:29;94592.34;;;7.12;83.54
81608;BME280;71022;48.122;11.576;2024-03-02T06:40:59;94590.38;;;7.29;82.57
81608;BME280;71022;48.122;11.576;2024-03-02T06:43:26;94591.50;;;7.47;81.41
81608;BME280;71022;48.122;11.576;2024-03-02T06:45:54;94594.13;;;7.59;80.49
81608;BME280;71022;48.122;11.576;2024-03-02T06:48:21;94587.09;;;7.58;80.25
81608;BME280;71022;48.122;11.576;2024-03-02T06:50:49;94587.72;;;7.51;80.86
81608;BME280;71022;48.122;11.576;2024-03-02T06:53:17;94585.41;;;7.53;80.69
81608;BME280;71022;48.122;11.576;2024-03-02T06:55:45;94590.84;;;7.15;83.04
81608;BME280;71022;48.122;11.576;2024-03-02T06:58:13;94588.31;;;7.06;84.22
81608;BME280;71022;48.122;11.576;2024-03-02T07:00:42;94583.78;;;7.14;82.61
81608;BME280;71022;48.122;11.576;2024-03-02T07:03:11;94590.28;;;7.44;81.64
81608;BME280;71022;48.122;11.576;2024-03-02T07:05:39;94584.56;;;7.49;80.95
81608;BME280;71022;48.122;11.576;2024-03-02T07:08:06;94584.56;;;7.68;80.29
81608;BME280;71022;48.122;11.576;2024-03-02T07:10:33;94580.03;;;7.57;80.58
81608;BME280;71022;48.122;11.576;2024-03-02T07:13:01;94578.66;;;7.86;79.37
81608;BME280;71022;48.122;11.576;2024-03-02T07:15:28;94578.00;;;8.11;78.39
81608;BME280;71022;48.122;11.576;2024-03-02T07:17:55;94592.38;;;7.89;79.22
81608;BME280;71022;48.122;11.576;2024-03-02T07:20:23;94588.84;;;8.08;78.36
81608;BME280;71022;48.122;11.576;2024-03-02T07:22:50;94587.00;;;8.12;78.21
81608;BME280;71022;48.122;11.576;2024-03-02T07:25:17;94583.22;;;8.20;77.65
81608;BME280;71022;48.122;11.576;2024-03-02T07:27:47;94592.69;;;8.03;78.49
81608;BME280;71022;48.122;11.576;2024-03-02T07:30:14;94590.69;;;8.00;78.74
81608;BME280;71022;48.122;11.576;2024-03-02T07:32:43;94596.81;;;8.16;78.21
81608;BME280;71022;48.122;11.576;2024-03-02T07:35:13;94604.31;;;8.19;77.34
81608;BME280;71022;48.122;11.576;2024-03-02T07:37:41;94605.34;;;8.11;78.04
81608;BME280;71022;48.122;11.576;2024-03-02T07:40:09;94602.78;;;8.22;77.59
81608;BME280;71022;48.122;11.576;2024-03-02T07:42:40;94604.59;;;8.14;77.35
81608;BME280;71022;48.122;11.576;2024-03-02T07:45:08;94608.41;;;8.10;77.94
81608;BME280;71022;48.122;11.576;2024-03-02T07:47:35;94612.22;;;8.44;76.91
81608;BME280;71022;48.122;11.576;2024-03-02T07:50:02;94617.31;;;8.68;75.68
81608;BME280;71022;48.122;11.576;2024-03-02T07:52:33;94611.13;;;8.71;75.71
81608;BME280;71022;48.122;11.576;2024-03-02T07:55:00;94604.38;;;8.65;75.48
81608;BME280;71022;48.122;11.576;2024-03-02T07:57:27;94611.25;;;8.78;74.28
81608;BME280;71022;48.122;11.576;2024-03-02T07:59:55;94607.41;;;8.60;74.98
81608;BME280;71022;48.122;11.576;2024-03-02T08:02:22;94604.72;;;8.63;75.61
81608;BME280;71022;48.122;11.576;2024-03-02T08:04:49;94598.41;;;8.82;74.72
81608;BME280;71022;48.122;11.576;2024-03-02T08:07:17;94606.63;;;9.08;73.16
81608;BME280;71022;48.122;11.576;2024-03-02T08:09:44;94606.38;;;9.73;71.26
81608;BME280;71022;48.122;11.576;2024-03-02T08:12:12;94613.06;;;10.05;70.37
81608;BME280;71022;48.122;11.576;2024-03-02T08:14:40;94612.44;;;10.15;68.63
81608;BME280;71022;48.122;11.576;2024-03-02T08:17:07;94611.56;;;10.44;68.25
81608;BME280;71022;48.122;11.576;2024-03-02T08:19:37;94611.09;;;10.35;67.53
81608;BME280;71022;48.122;11.576;2024-03-02T08:22:04;94608.13;;;10.54;67.70
81608;BME280;71022;48.122;11.576;2024-03-02T08:24:32;94611.91;;;10.80;66.49
81608;BME280;71022;48.122;11.576;2024-03-02T08:26:59;94611.81;;;10.69;66.63
81608;BME280;71022;48.122;11.576;2024-03-02T08:29:27;94601.13;;;10.61;67.04
81608;BME280;71022;48.122;11.576;2024-03-02T08:31:54;94617.75;;;10.78;67.63
81608;BME280;71022;48.122;11.576;2024-03-02T08:34:22;94607.34;;;10.98;66.67
81608;BME280;71022;48.122;11.576;2024-03-02T08:36:49;94620.03;;;11.13;65.77
81608;BME280;71022;48.122;11.576;2024-03-02T08:39:17;94609.38;;;11.08;65.09
81608;BME280;71022;48.122;11.576;2024-03-02T08:41:44;94615.09;;;11.36;64.72
81608;BME280;71022;48.122;11.576;2024-03-02T08:44:13;94620.09;;;11.20;65.44
81608;BME280;71022;48.122;11.576;2024-03-02T08:46:40;94617.75;;;11.22;64.77
81608;BME280;71022;48.122;11.576;2024-03-02T08:49:08;94618.81;;;11.07;65.32
81608;BME280;71022;48.122;11.576;2024-03-02T08:51:36;94624.50;;;11.35;64.45
81608;BME280;71022;48.122;11.576;2024-03-02T08:54:03;94618.59;;;11.30;64.77
81608;BME280;71022;48.122;11.576;2024-03-02T08:56:31;94618.09;;;11.72;63.96
81608;BME280;71022;48.122;11.576;2024-03-02T08:58:58;94616.00;;;11.54;64.72
81608;BME280;71022;48.122;11.576;2024-03-02T09:01:26;94620.84;;;11.72;63.62
81608;BME280;71022;48.122;11.576;2024-03-02T09:03:53;94612.09;;;11.59;63.70
81608;BME280;71022;48.122;11.576;2024-03-02T09:06:20;94623.94;;;11.66;63.97
81608;BME280;71022;48.122;11.576;2024-03-02T09:08:48;94620.31;;;11.52;64.36
81608;BME280;71022;48.122;11.576;2024-03-02T09:11:16;94618.53;;;11.74;64.36
81608;BME280;71022;48.122;11.576;2024-03-02T09:13:43;94628.84;;;11.98;63.69
81608;BME280;71022;48.122;11.576;2024-03-02T09:16:11;94623.59;;;11.72;63.55
81608;BME280;71022;48.122;11.576;2024-03-02T09:18:38;94631.28;;;12.06;63.25
81608;BME280;71022;48.122;11.576;2024-03-02T09:21:06;94630.97;;;12.29;61.96
81608;BME280;71022;48.122;11.576;2024-03-02T09:23:34;94625.69;;;11.96;62.10
81608;BME280;71022;48.122;11.576;2024-03-02T09:26:01;94629.50;;;11.70;63.16
81608;BME280;71022;48.122;11.576;2024-03-02T09:28:30;94627.94;;;11.73;62.63
81608;BME280;71022;48.122;11.576;2024-03-02T09:30:57;94628.75;;;11.77;63.53
81608;BME280;71022;48.122;11.576;2024-03-02T09:33:27;94623.13;;;11.62;63.43
81608;BME280;71022;48.122;11.576;2024-03-02T09:35:54;94619.97;;;11.57;64.00
81608;BME280;71022;48.122;11.576;2024-03-02T09:38:21;94612.94;;;11.05;64.53
81608;BME280;71022;48.122;11.576;2024-03-02T09:40:49;94616.25;;;11.28;64.69
81608;BME280;71022;48.122;11.576;2024-03-02T09:43:16;94608.78;;;11.32;65.13
81608;BME280;71022;48.122;11.576;2024-03-02T09:45:44;94611.38;;;11.65;64.63
81608;BME280;71022;48.122;11.576;2024-03-02T09:48:12;94608.75;;;11.80;64.37
81608;BME280;71022;48.122;11.576;2024-03-02T09:50:39;94611.44;;;11.73;63.58
81608;BME280;71022;48.122;11.576;2024-03-02T09:53:07;94616.63;;;11.85;63.88
81608;BME280;71022;48.122;11.576;2024-03-02T09:55:34;94611.50;;;11.87;62.76
81608;BME280;71022;48.122;11.576;2024-03-02T09:58:01;94601.22;;;11.70;62.03
81608;BME280;71022;48.122;11.576;2024-03-02T10:00:30;94606.59;;;11.55;62.63
81608;BME280;71022;48.122;11.576;2024-03-02T10:02:57;94607.31;;;11.45;63.79
81608;BME280;71022;48.122;11.576;2024-03-02T10:05:26;94598.56;;;11.26;63.45
81608;BME280;71022;48.122;11.576;2024-03-02T10:08:01;94595.78;;;11.22;64.53
81608;BME280;71022;48.122;11.576;2024-03-02T10:10:39;94592.75;;;11.41;65.01
81608;BME280;71022;48.122;11.576;2024-03-02T10:13:12;94597.13;;;11.53;63.62
81608;BME280;71022;48.122;11.576;2024-03-02T10:15:40;94597.75;;;11.25;63.19
81608;BME280;71022;48.122;11.576;2024-03-02T10:18:09;94591.06;;;11.23;64.22
81608;BME280;71022;48.122;11.576;2024-03-02T10:20:38;94596.94;;;11.21;64.29
81608;BME280;71022;48.122;11.576;2024-03-02T10:23:13;94579.56;;;11.06;64.53
81608;BME280;71022;48.122;11.576;2024-03-02T10:25:41;94588.13;;;10.98;64.45
81608;BME280;71022;48.122;11.576;2024-03-02T10:28:23;94591.28;;;11.00;64.52
81608;BME280;71022;48.122;11.576;2024-03-02T10:30:51;94580.34;;;11.07;63.82
81608;BME280;71022;48.122;11.576;2024-03-02T10:33:20;94579.59;;;11.10;63.51
81608;BME280;71022;48.122;11.576;2024-03-02T10:35:49;94580.84;;;11.20;64.07
81608;BME280;71022;48.122;11.576;2024-03-02T10:38:17;94576.13;;;11.20;63.52
81608;BME280;71022;48.122;11.576;2024-03-02T10:40:47;94580.50;;;11.28;63.49
81608;BME280;71022;48.122;11.576;2024-03-02T10:43:15;94575.03;;;11.35;63.65
81608;BME280;71022;48.122;11.576;2024-03-02T10:45:46;94562.50;;;11.34;62.71
81608;BME280;71022;48.122;11.576;2024-03-02T10:48:16;94564.88;;;11.39;61.18
81608;BME280;71022;48.122;11.576;2024-03-02T10:50:43;94559.28;;;11.25;62.42
81608;BME280;71022;48.122;11.576;2024-03-02T10:53:10;94549.06;;;11.22;62.94
81608;BME280;71022;48.122;11.576;2024-03-02T10:55:37;94547.88;;;11.23;62.45
81608;BME280;71022;48.122;11.576;2024-03-02T10:58:06;94545.53;;;11.25;62.70
81608;BME280;71022;48.122;11.576;2024-03-02T11:00:37;94548.28;;;11.25;63.05
81608;BME280;71022;48.122;11.576;2024-03-02T11:03:06;94544.78;;;11.28;63.97
81608;BME280;71022;48.122;11.576;2024-03-02T11:05:38;94540.56;;;11.48;64.25
81608;BME280;71022;48.122;11.576;2024-03-02T11:08:07;94542.13;;;11.46;63.48
81608;BME280;71022;48.122;11.576;2024-03-02T11:10:37;94535.78;;;11.38;62.98
81608;BME280;71022;48.122;11.576;2024-03-02T11:13:09;94527.25;;;11.57;63.26
81608;BME280;71022;48.122;11.576;2024-03-02T11:15:40;94532.03;;;11.68;63.09
81608;BME280;71022;48.122;11.576;2024-03-02T11:18:09;94517.84;;;11.65;63.22
81608;BME280;71022;48.122;11.576;2024-03-02T11:20:40;94513.13;;;11.55;64.15
81608;BME280;71022;48.122;11.576;2024-03-02T11:23:09;94506.75;;;11.44;63.97
81608;BME280;71022;48.122;11.576;2024-03-02T11:25:36;94511.56;;;11.61;64.27
81608;BME280;71022;48.122;11.576;2024-03-02T11:28:06;94513.84;;;11.45;62.98
81608;BME280;71022;48.122;11.576;2024-03-02T11:33:08;94500.16;;;11.52;63.10
81608;BME280;71022;48.122;11.576;2024-03-02T11:35:42;94495.16;;;11.76;62.93
81608;BME280;71022;48.122;11.576;2024-03-02T11:38:10;94499.13;;;11.96;62.13
81608;BME280;71022;48.122;11.576;2024-03-02T11:40:41;94486.91;;;11.83;61.89
81608;BME280;71022;48.122;11.576;2024-03-02T11:43:08;94485.75;;;11.84;61.18
81608;BME280;71022;48.122;11.576;2024-03-02T11:45:37;94486.91;;;11.83;61.19
81608;BME280;71022;48.122;11.576;2024-03-02T11:48:11;94472.38;;;11.79;61.22
81608;BME280;71022;48.122;11.576;2024-03-02T11:50:42;94464.94;;;11.90;60.87
81608;BME280;71022;48.122;11.576;2024-03-02T11:53:11;94460.25;;;11.97;60.45
81608;BME280;71022;48.122;11.576;2024-03-02T11:55:39;94462.97;;;12.01;60.36
81608;BME280;71022;48.122;11.576;2024-03-02T11:58:07;94457.47;;;12.01;59.90
81608;BME280;71022;48.122;11.576;2024-03-02T12:00:35;94450.84;;;12.09;59.35
81608;BME280;71022;48.122;11.576;2024-03-02T12:03:06;94455.50;;;11.98;59.72
81608;BME280;71022;48.122;11.576;2024-03-02T12:05:35;94450.41;;;12.00;59.70
81608;BME280;71022;48.122;11.576;2024-03-02T12:08:04;94448.44;;;12.04;59.35
81608;BME280;71022;48.122;11.576;2024-03-02T12:10:34;94449.25;;;12.22;59.50
81608;BME280;71022;48.122;11.576;2024-03-02T12:13:05;94440.25;;;12.36;59.07
81608;BME280;71022;48.122;11.576;2024-03-02T12:15:39;94431.59;;;12.51;59.10
81608;BME280;71022;48.122;11.576;2024-03-02T12:18:07;94435.13;;;12.59;58.74
81608;BME280;71022;48.122;11.576;2024-03-02T12:20:34;94436.28;;;12.26;59.20
81608;BME280;71022;48.122;11.576;2024-03-02T12:23:03;94427.25;;;12.33;59.97
81608;BME280;71022;48.122;11.576;2024-03-02T12:25:31;94430.00;;;12.33;59.56
81608;BME280;71022;48.122;11.576;2024-03-02T12:28:00;94418.19;;;12.46;59.03
81608;BME280;71022;48.122;11.576;2024-03-02T12:30:30;94414.28;;;12.44;59.45
81608;BME280;71022;48.122;11.576;2024-03-02T12:32:58;94416.25;;;12.50;59.61
81608;BME280;71022;48.122;11.576;2024-03-02T12:35:26;94406.78;;;12.58;59.27
81608;BME280;71022;48.122;11.576;2024-03-02T12:37:54;94411.50;;;12.72;59.40
81608;BME280;71022;48.122;11.576;2024-03-02T12:40:22;94396.16;;;12.74;59.37
81608;BME280;71022;48.122;11.576;2024-03-02T12:42:50;94396.53;;;12.76;58.93
81608;BME280;71022;48.122;11.576;2024-03-02T12:45:18;94390.63;;;12.74;59.45
81608;BME280;71022;48.122;11.576;2024-03-02T12:47:51;94386.69;;;12.83;59.43
81608;BME280;71022;48.122;11.576;2024-03-02T12:50:20;94378.88;;;12.60;62.35
81608;BME280;71022;48.122;11.576;2024-03-02T12:52:52;94380.41;;;12.57;62.69
81608;BME280;71022;48.122;11.576;2024-03-02T12:55:21;94371.38;;;12.53;62.83
81608;BME280;71022;48.122;11.576;2024-03-02T12:57:52;94379.25;;;12.65;61.20
81608;BME280;71022;48.122;11.576;2024-03-02T13:00:21;94375.66;;;12.75;60.09
81608;BME280;71022;48.122;11.576;2024-03-02T13:02:50;94365.84;;;12.71;58.94
81608;BME280;71022;48.122;11.576;2024-03-02T13:05:19;94364.63;;;12.79;58.65
81608;BME280;71022;48.122;11.576;2024-03-02T13:07:48;94363.03;;;12.89;58.98